sensor_id;sensor_type;location;lat;lon;timestamp;temperature;humidity
51839;DHT22;37886;53.174;6.368;2023-03-15T00:01:37;3.10;99.90
51839;DHT22;37886;53.174;6.368;2023-03-15T00:04:03;3.10;99.90
51839;DHT22;37886;53.174;6.368;2023-03-15T00:06:31;3.00;99.90
51839;DHT22;37886;53.174;6.368;2023-03-15T00:08:59;3.00;99.90
51839;DHT22;37886;53.174;6.368;2023-03-15T00:11:27;2.90;99.90
51839;DHT22;37886;53.174;6.368;2023-03-15T00:13:58;3.00;99.90
51839;DHT22;37886;53.174;6.368;2023-03-15T00:16:25;2.90;99.90
51839;DHT22;37886;53.174;6.368;2023-03-15T00:18:55;2.80;99.90
51839;DHT22;37886;53.174;6.368;2023-03-15T00:21:21;2.70;99.90
51839;DHT22;37886;53.174;6.368;2023-03-15T00:23:47;2.70;99.90
51839;DHT22;37886;53.174;6.368;2023-03-15T00:26:13;2.70;99.90
51839;DHT22;37886;53.174;6.368;2023-03-15T00:28:39;2.70;99.90
51839;DHT22;37886;53.174;6.368;2023-03-15T00:31:07;2.60;99.90
51839;DHT22;37886;53.174;6.368;2023-03-15T00:33:34;2.50;99.90
51839;DHT22;37886;53.174;6.368;2023-03-15T00:36:04;2.50;99.90
51839;DHT22;37886;53.174;6.368;2023-03-15T00:38:31;2.30;99.90
51839;DHT22;37886;53.174;6.368;2023-03-15T00:41:03;2.30;99.90
51839;DHT22;37886;53.174;6.368;2023-03-15T00:43:28;2.30;99.90
51839;DHT22;37886;53.174;6.368;2023-03-15T00:45:54;2.40;99.90
51839;DHT22;37886;53.174;6.368;2023-03-15T00:48:20;2.40;99.90
51839;DHT22;37886;53.174;6.368;2023-03-15T00:50:45;2.50;99.90
51839;DHT22;37886;53.174;6.368;2023-03-15T00:53:11;2.50;99.90
51839;DHT22;37886;53.174;6.368;2023-03-15T00:55:37;2.50;99.90
51839;DHT22;37886;53.174;6.368;2023-03-15T00:58:02;2.40;99.90
51839;DHT22;37886;53.174;6.368;2023-03-15T01:00:28;2.40;99.90
51839;DHT22;37886;53.174;6.368;2023-03-15T01:02:54;2.40;99.90
51839;DHT22;37886;53.174;6.368;2023-03-15T01:05:19;2.50;99.90
51839;DHT22;37886;53.174;6.368;2023-03-15T01:07:45;2.50;99.90
51839;DHT22;37886;53.174;6.368;2023-03-15T01:10:12;2.60;99.90
51839;DHT22;37886;53.174;6.368;2023-03-15T01:12:38;2.60;99.90
51839;DHT22;37886;53.174;6.368;2023-03-15T01:15:06;2.50;99.90
51839;DHT22;37886;53.174;6.368;2023-03-15T01:17:32;2.50;99.90
51839;DHT22;37886;53.174;6.368;2023-03-15T01:19:58;2.50;99.90
51839;DHT22;37886;53.174;6.368;2023-03-15T01:22:25;2.50;99.90
51839;DHT22;37886;53.174;6.368;2023-03-15T01:24:51;2.50;99.90
51839;DHT22;37886;53.174;6.368;2023-03-15T01:27:16;2.40;99.90
51839;DHT22;37886;53.174;6.368;2023-03-15T01:29:42;2.30;99.90
51839;DHT22;37886;53.174;6.368;2023-03-15T01:32:08;2.40;99.90
51839;DHT22;37886;53.174;6.368;2023-03-15T01:34:34;2.40;99.90
51839;DHT22;37886;53.174;6.368;2023-03-15T01:37:00;2.40;99.90
51839;DHT22;37886;53.174;6.368;2023-03-15T01:39:28;2.30;99.90
51839;DHT22;37886;53.174;6.368;2023-03-15T01:41:53;2.20;99.90
51839;DHT22;37886;53.174;6.368;2023-03-15T01:44:19;2.20;99.90
51839;DHT22;37886;53.174;6.368;2023-03-15T01:46:45;2.20;99.90
51839;DHT22;37886;53.174;6.368;2023-03-15T01:52:08;2.10;99.90
51839;DHT22;37886;53.174;6.368;2023-03-15T01:55:08;2.10;99.90
51839;DHT22;37886;53.174;6.368;2023-03-15T01:57:51;2.10;99.90
51839;DHT22;37886;53.174;6.368;2023-03-15T02:00:20;2.20;99.90
51839;DHT22;37886;53.174;6.368;2023-03-15T02:02:52;2.20;99.90
51839;DHT22;37886;53.174;6.368;2023-03-15T02:05:22;2.10;99.90
51839;DHT22;37886;53.174;6.368;2023-03-15T02:07:50;2.20;99.90
51839;DHT22;37886;53.174;6.368;2023-03-15T02:10:42;2.10;99.90
51839;DHT22;37886;53.174;6.368;2023-03-15T02:13:08;2.10;99.90
51839;DHT22;37886;53.174;6.368;2023-03-15T02:15:35;2.10;99.90
51839;DHT22;37886;53.174;6.368;2023-03-15T02:18:01;2.10;99.90
51839;DHT22;37886;53.174;6.368;2023-03-15T02:23:07;2.20;99.90
51839;DHT22;37886;53.174;6.368;2023-03-15T02:28:13;2.00;99.90
51839;DHT22;37886;53.174;6.368;2023-03-15T02:30:40;2.00;99.90
51839;DHT22;37886;53.174;6.368;2023-03-15T02:33:31;1.90;99.90
51839;DHT22;37886;53.174;6.368;2023-03-15T02:38:33;1.90;99.90
51839;DHT22;37886;53.174;6.368;2023-03-15T02:40:59;1.80;99.90
51839;DHT22;37886;53.174;6.368;2023-03-15T02:43:27;1.80;99.90
51839;DHT22;37886;53.174;6.368;2023-03-15T02:45:55;1.80;99.90
51839;DHT22;37886;53.174;6.368;2023-03-15T02:48:21;1.70;99.90
51839;DHT22;37886;53.174;6.368;2023-03-15T02:50:46;1.70;99.90
51839;DHT22;37886;53.174;6.368;2023-03-15T02:53:12;1.60;99.90
51839;DHT22;37886;53.174;6.368;2023-03-15T02:55:38;1.50;99.90
51839;DHT22;37886;53.174;6.368;2023-03-15T02:58:03;1.40;99.90
51839;DHT22;37886;53.174;6.368;2023-03-15T03:00:29;1.40;99.90
51839;DHT22;37886;53.174;6.368;2023-03-15T03:02:55;1.40;99.90
51839;DHT22;37886;53.174;6.368;2023-03-15T03:05:22;1.40;99.90
51839;DHT22;37886;53.174;6.368;2023-03-15T03:07:48;1.30;99.90
51839;DHT22;37886;53.174;6.368;2023-03-15T03:10:17;1.40;99.90
51839;DHT22;37886;53.174;6.368;2023-03-15T03:12:43;1.40;99.90
51839;DHT22;37886;53.174;6.368;2023-03-15T03:15:09;1.40;99.90
51839;DHT22;37886;53.174;6.368;2023-03-15T03:17:35;1.40;99.90
51839;DHT22;37886;53.174;6.368;2023-03-15T03:20:04;1.40;99.90
51839;DHT22;37886;53.174;6.368;2023-03-15T03:22:32;1.40;99.90
51839;DHT22;37886;53.174;6.368;2023-03-15T03:24:58;1.30;99.90
51839;DHT22;37886;53.174;6.368;2023-03-15T03:27:24;1.40;99.90
51839;DHT22;37886;53.174;6.368;2023-03-15T03:29:50;1.40;99.90
51839;DHT22;37886;53.174;6.368;2023-03-15T03:32:15;1.40;99.90
51839;DHT22;37886;53.174;6.368;2023-03-15T03:34:41;1.50;99.90
51839;DHT22;37886;53.174;6.368;2023-03-15T03:37:19;1.50;99.90
51839;DHT22;37886;53.174;6.368;2023-03-15T03:39:46;1.60;99.90
51839;DHT22;37886;53.174;6.368;2023-03-15T03:42:12;1.40;99.90
51839;DHT22;37886;53.174;6.368;2023-03-15T03:44:39;1.40;99.90
51839;DHT22;37886;53.174;6.368;2023-03-15T03:47:05;1.30;99.90
51839;DHT22;37886;53.174;6.368;2023-03-15T03:49:31;1.20;99.90
51839;DHT22;37886;53.174;6.368;2023-03-15T03:51:57;1.30;99.90
51839;DHT22;37886;53.174;6.368;2023-03-15T03:54:24;1.20;99.90
51839;DHT22;37886;53.174;6.368;2023-03-15T03:56:50;1.20;99.90
51839;DHT22;37886;53.174;6.368;2023-03-15T03:59:16;1.20;99.90
51839;DHT22;37886;53.174;6.368;2023-03-15T04:01:42;1.20;99.90
51839;DHT22;37886;53.174;6.368;2023-03-15T04:04:08;1.20;99.90
51839;DHT22;37886;53.174;6.368;2023-03-15T04:06:34;1.10;99.90
51839;DHT22;37886;53.174;6.368;2023-03-15T04:09:00;1.10;99.90
51839;DHT22;37886;53.174;6.368;2023-03-15T04:11:28;1.00;99.90
51839;DHT22;37886;53.174;6.368;2023-03-15T04:13:54;1.00;99.90
51839;DHT22;37886;53.174;6.368;2023-03-15T04:16:19;0.90;99.90
51839;DHT22;37886;53.174;6.368;2023-03-15T04:18:45;1.00;99.90
51839;DHT22;37886;53.174;6.368;2023-03-15T04:21:11;1.00;99.90
51839;DHT22;37886;53.174;6.368;2023-03-15T04:23:37;1.10;99.90
51839;DHT22;37886;53.174;6.368;2023-03-15T04:26:04;1.10;99.90
51839;DHT22;37886;53.174;6.368;2023-03-15T04:28:32;1.10;99.90
51839;DHT22;37886;53.174;6.368;2023-03-15T04:30:58;1.00;99.90
51839;DHT22;37886;53.174;6.368;2023-03-15T04:33:24;0.90;99.90
51839;DHT22;37886;53.174;6.368;2023-03-15T04:35:50;0.90;99.90
51839;DHT22;37886;53.174;6.368;2023-03-15T04:38:17;0.80;99.90
51839;DHT22;37886;53.174;6.368;2023-03-15T04:40:44;0.80;99.90
51839;DHT22;37886;53.174;6.368;2023-03-15T04:43:10;0.70;99.90
51839;DHT22;37886;53.174;6.368;2023-03-15T04:45:35;0.70;99.90
51839;DHT22;37886;53.174;6.368;2023-03-15T04:48:01;0.70;99.90
51839;DHT22;37886;53.174;6.368;2023-03-15T04:50:28;0.70;99.90
51839;DHT22;37886;53.174;6.368;2023-03-15T04:52:56;0.70;99.90
51839;DHT22;37886;53.174;6.368;2023-03-15T04:55:22;0.60;99.90
51839;DHT22;37886;53.174;6.368;2023-03-15T04:57:48;0.60;99.90
51839;DHT22;37886;53.174;6.368;2023-03-15T05:00:14;0.60;99.90
51839;DHT22;37886;53.174;6.368;2023-03-15T05:02:40;0.50;99.90
51839;DHT22;37886;53.174;6.368;2023-03-15T05:05:07;0.50;99.90
51839;DHT22;37886;53.174;6.368;2023-03-15T05:07:34;0.50;99.90
51839;DHT22;37886;53.174;6.368;2023-03-15T05:10:00;0.50;99.90
51839;DHT22;37886;53.174;6.368;2023-03-15T05:12:27;0.50;99.90
51839;DHT22;37886;53.174;6.368;2023-03-15T05:14:52;0.50;99.90
51839;DHT22;37886;53.174;6.368;2023-03-15T05:17:18;0.50;99.90
51839;DHT22;37886;53.174;6.368;2023-03-15T05:19:44;0.40;99.90
51839;DHT22;37886;53.174;6.368;2023-03-15T05:22:10;0.40;99.90
51839;DHT22;37886;53.174;6.368;2023-03-15T05:24:36;0.40;99.90
51839;DHT22;37886;53.174;6.368;2023-03-15T05:27:02;0.40;99.90
51839;DHT22;37886;53.174;6.368;2023-03-15T05:29:29;0.50;99.90
51839;DHT22;37886;53.174;6.368;2023-03-15T05:31:54;0.60;99.90
51839;DHT22;37886;53.174;6.368;2023-03-15T05:34:20;0.70;99.90
51839;DHT22;37886;53.174;6.368;2023-03-15T05:36:50;0.70;99.90
51839;DHT22;37886;53.174;6.368;2023-03-15T05:39:17;0.70;99.90
51839;DHT22;37886;53.174;6.368;2023-03-15T05:41:42;0.70;99.90
51839;DHT22;37886;53.174;6.368;2023-03-15T05:44:08;0.80;99.90
51839;DHT22;37886;53.174;6.368;2023-03-15T05:46:34;0.70;99.90
51839;DHT22;37886;53.174;6.368;2023-03-15T05:48:59;0.70;99.90
51839;DHT22;37886;53.174;6.368;2023-03-15T05:51:25;0.70;99.90
51839;DHT22;37886;53.174;6.368;2023-03-15T05:53:51;0.70;99.90
51839;DHT22;37886;53.174;6.368;2023-03-15T05:56:16;0.70;99.90
51839;DHT22;37886;53.174;6.368;2023-03-15T05:58:42;0.70;99.90
51839;DHT22;37886;53.174;6.368;2023-03-15T06:01:08;0.80;99.90
51839;DHT22;37886;53.174;6.368;2023-03-15T06:03:33;0.70;99.90
51839;DHT22;37886;53.174;6.368;2023-03-15T06:05:59;0.70;99.90
51839;DHT22;37886;53.174;6.368;2023-03-15T06:08:25;0.70;99.90
51839;DHT22;37886;53.174;6.368;2023-03-15T06:10:51;0.70;99.90
51839;DHT22;37886;53.174;6.368;2023-03-15T06:13:17;0.70;99.90
51839;DHT22;37886;53.174;6.368;2023-03-15T06:15:44;0.70;99.90
51839;DHT22;37886;53.174;6.368;2023-03-15T06:18:10;0.70;99.90
51839;DHT22;37886;53.174;6.368;2023-03-15T06:20:38;0.70;99.90
51839;DHT22;37886;53.174;6.368;2023-03-15T06:23:04;0.60;99.90
51839;DHT22;37886;53.174;6.368;2023-03-15T06:25:30;0.60;99.90
51839;DHT22;37886;53.174;6.368;2023-03-15T06:27:56;0.70;99.90
51839;DHT22;37886;53.174;6.368;2023-03-15T06:30:21;0.60;99.90
51839;DHT22;37886;53.174;6.368;2023-03-15T06:32:47;0.60;99.90
51839;DHT22;37886;53.174;6.368;2023-03-15T06:35:13;0.60;99.90
51839;DHT22;37886;53.174;6.368;2023-03-15T06:37:38;0.60;99.90
51839;DHT22;37886;53.174;6.368;2023-03-15T06:40:16;0.60;99.90
51839;DHT22;37886;53.174;6.368;2023-03-15T06:43:16;0.60;99.90
51839;DHT22;37886;53.174;6.368;2023-03-15T06:45:45;0.70;99.90
51839;DHT22;37886;53.174;6.368;2023-03-15T06:48:12;0.80;99.90
51839;DHT22;37886;53.174;6.368;2023-03-15T06:50:39;0.90;99.90
51839;DHT22;37886;53.174;6.368;2023-03-15T06:53:05;0.90;99.90
51839;DHT22;37886;53.174;6.368;2023-03-15T06:55:33;1.00;99.90
51839;DHT22;37886;53.174;6.368;2023-03-15T06:57:59;1.10;99.90
51839;DHT22;37886;53.174;6.368;2023-03-15T07:00:25;1.10;99.90
51839;DHT22;37886;53.174;6.368;2023-03-15T07:02:50;1.20;99.90
51839;DHT22;37886;53.174;6.368;2023-03-15T07:05:16;1.30;99.90
51839;DHT22;37886;53.174;6.368;2023-03-15T07:07:42;1.40;99.90
51839;DHT22;37886;53.174;6.368;2023-03-15T07:10:08;1.40;99.90
51839;DHT22;37886;53.174;6.368;2023-03-15T07:12:34;1.50;99.90
51839;DHT22;37886;53.174;6.368;2023-03-15T07:15:00;1.50;99.90
51839;DHT22;37886;53.174;6.368;2023-03-15T07:17:25;1.60;99.90
51839;DHT22;37886;53.174;6.368;2023-03-15T07:19:51;1.70;99.90
51839;DHT22;37886;53.174;6.368;2023-03-15T07:22:17;1.70;99.90
51839;DHT22;37886;53.174;6.368;2023-03-15T07:24:43;1.80;99.90
51839;DHT22;37886;53.174;6.368;2023-03-15T07:27:12;1.90;99.90
51839;DHT22;37886;53.174;6.368;2023-03-15T07:29:38;2.00;99.90
51839;DHT22;37886;53.174;6.368;2023-03-15T07:32:04;2.10;99.90
51839;DHT22;37886;53.174;6.368;2023-03-15T07:34:30;2.20;99.90
51839;DHT22;37886;53.174;6.368;2023-03-15T07:36:55;2.20;99.90
51839;DHT22;37886;53.174;6.368;2023-03-15T07:39:21;2.30;99.90
51839;DHT22;37886;53.174;6.368;2023-03-15T07:41:48;2.40;99.90
51839;DHT22;37886;53.174;6.368;2023-03-15T07:44:14;2.50;99.90
51839;DHT22;37886;53.174;6.368;2023-03-15T07:46:39;2.60;99.90
51839;DHT22;37886;53.174;6.368;2023-03-15T07:49:05;2.70;99.90
51839;DHT22;37886;53.174;6.368;2023-03-15T07:51:31;2.80;99.90
51839;DHT22;37886;53.174;6.368;2023-03-15T07:53:57;2.90;99.90
51839;DHT22;37886;53.174;6.368;2023-03-15T07:56:22;3.00;99.90
51839;DHT22;37886;53.174;6.368;2023-03-15T07:58:48;3.10;99.90
51839;DHT22;37886;53.174;6.368;2023-03-15T08:01:14;3.20;99.90
51839;DHT22;37886;53.174;6.368;2023-03-15T08:03:39;3.20;99.90
51839;DHT22;37886;53.174;6.368;2023-03-15T08:06:06;3.30;99.90
51839;DHT22;37886;53.174;6.368;2023-03-15T08:08:32;3.30;99.90
51839;DHT22;37886;53.174;6.368;2023-03-15T08:10:58;3.40;99.90
51839;DHT22;37886;53.174;6.368;2023-03-15T08:13:24;3.40;99.90
51839;DHT22;37886;53.174;6.368;2023-03-15T08:15:50;3.50;99.90
51839;DHT22;37886;53.174;6.368;2023-03-15T08:18:15;3.60;99.90
51839;DHT22;37886;53.174;6.368;2023-03-15T08:20:41;3.70;99.90
51839;DHT22;37886;53.174;6.368;2023-03-15T08:23:07;3.80;99.90
51839;DHT22;37886;53.174;6.368;2023-03-15T08:25:34;3.80;99.90
51839;DHT22;37886;53.174;6.368;2023-03-15T08:28:01;3.80;99.90
51839;DHT22;37886;53.174;6.368;2023-03-15T08:30:26;3.90;99.90
51839;DHT22;37886;53.174;6.368;2023-03-15T08:32:52;4.00;99.90
51839;DHT22;37886;53.174;6.368;2023-03-15T08:35:20;4.00;99.90
51839;DHT22;37886;53.174;6.368;2023-03-15T08:37:46;4.20;99.90
51839;DHT22;37886;53.174;6.368;2023-03-15T08:40:13;4.30;99.90
51839;DHT22;37886;53.174;6.368;2023-03-15T08:42:39;4.30;99.90
51839;DHT22;37886;53.174;6.368;2023-03-15T08:45:07;4.40;99.90
51839;DHT22;37886;53.174;6.368;2023-03-15T08:47:33;4.50;99.90
51839;DHT22;37886;53.174;6.368;2023-03-15T08:50:03;4.60;99.90
51839;DHT22;37886;53.174;6.368;2023-03-15T08:52:30;4.60;99.90
51839;DHT22;37886;53.174;6.368;2023-03-15T08:54:56;4.80;99.90
51839;DHT22;37886;53.174;6.368;2023-03-15T08:57:22;4.80;99.90
51839;DHT22;37886;53.174;6.368;2023-03-15T08:59:54;4.90;99.90
51839;DHT22;37886;53.174;6.368;2023-03-15T09:02:21;4.90;99.90
51839;DHT22;37886;53.174;6.368;2023-03-15T09:04:48;5.10;99.90
51839;DHT22;37886;53.174;6.368;2023-03-15T09:07:14;5.20;99.90
51839;DHT22;37886;53.174;6.368;2023-03-15T09:09:40;5.20;99.90
51839;DHT22;37886;53.174;6.368;2023-03-15T09:12:06;5.20;99.90
51839;DHT22;37886;53.174;6.368;2023-03-15T09:14:32;5.30;99.90
51839;DHT22;37886;53.174;6.368;2023-03-15T09:16:58;5.40;99.90
51839;DHT22;37886;53.174;6.368;2023-03-15T09:19:24;5.40;99.90
51839;DHT22;37886;53.174;6.368;2023-03-15T09:21:49;5.60;99.90
51839;DHT22;37886;53.174;6.368;2023-03-15T09:24:16;5.60;99.90
51839;DHT22;37886;53.174;6.368;2023-03-15T09:26:41;5.60;99.90
51839;DHT22;37886;53.174;6.368;2023-03-15T09:29:07;5.60;99.90
51839;DHT22;37886;53.174;6.368;2023-03-15T09:31:34;5.80;99.90
51839;DHT22;37886;53.174;6.368;2023-03-15T09:34:00;5.80;99.90
51839;DHT22;37886;53.174;6.368;2023-03-15T09:36:25;5.80;99.90
51839;DHT22;37886;53.174;6.368;2023-03-15T09:38:51;5.90;99.90
51839;DHT22;37886;53.174;6.368;2023-03-15T09:52:03;6.10;99.90
51839;DHT22;37886;53.174;6.368;2023-03-15T09:54:58;6.30;99.90
51839;DHT22;37886;53.174;6.368;2023-03-15T09:57:52;6.30;99.90
51839;DHT22;37886;53.174;6.368;2023-03-15T10:00:27;6.40;99.90
51839;DHT22;37886;53.174;6.368;2023-03-15T10:03:00;6.30;99.90
51839;DHT22;37886;53.174;6.368;2023-03-15T10:08:02;6.20;99.90
51839;DHT22;37886;53.174;6.368;2023-03-15T10:10:33;6.20;99.90
51839;DHT22;37886;53.174;6.368;2023-03-15T10:15:41;6.50;99.90
51839;DHT22;37886;53.174;6.368;2023-03-15T10:18:30;6.60;99.90
51839;DHT22;37886;53.174;6.368;2023-03-15T10:21:04;6.80;99.90
51839;DHT22;37886;53.174;6.368;2023-03-15T10:24:03;6.90;99.90
51839;DHT22;37886;53.174;6.368;2023-03-15T10:26:33;6.80;99.90
51839;DHT22;37886;53.174;6.368;2023-03-15T10:29:01;6.70;99.90
51839;DHT22;37886;53.174;6.368;2023-03-15T10:31:32;6.90;99.90
51839;DHT22;37886;53.174;6.368;2023-03-15T10:33:59;7.00;99.90
51839;DHT22;37886;53.174;6.368;2023-03-15T10:36:25;7.00;99.90
51839;DHT22;37886;53.174;6.368;2023-03-15T10:38:51;7.00;99.90
51839;DHT22;37886;53.174;6.368;2023-03-15T10:41:44;7.30;99.90
51839;DHT22;37886;53.174;6.368;2023-03-15T10:44:22;7.40;99.90
51839;DHT22;37886;53.174;6.368;2023-03-15T10:47:11;7.40;99.90
51839;DHT22;37886;53.174;6.368;2023-03-15T10:49:39;7.40;99.90
51839;DHT22;37886;53.174;6.368;2023-03-15T10:52:22;7.40;99.90
51839;DHT22;37886;53.174;6.368;2023-03-15T10:54:50;7.50;99.90
51839;DHT22;37886;53.174;6.368;2023-03-15T10:57:18;7.60;99.90
51839;DHT22;37886;53.174;6.368;2023-03-15T11:00:12;7.50;99.90
51839;DHT22;37886;53.174;6.368;2023-03-15T11:03:20;7.30;99.90
51839;DHT22;37886;53.174;6.368;2023-03-15T11:05:49;7.10;99.90
51839;DHT22;37886;53.174;6.368;2023-03-15T11:08:20;7.30;99.90
51839;DHT22;37886;53.174;6.368;2023-03-15T11:10:57;7.30;99.90
51839;DHT22;37886;53.174;6.368;2023-03-15T11:13:25;7.60;99.90
51839;DHT22;37886;53.174;6.368;2023-03-15T11:18:33;7.70;99.90
51839;DHT22;37886;53.174;6.368;2023-03-15T11:21:00;7.80;99.90
51839;DHT22;37886;53.174;6.368;2023-03-15T11:23:30;8.00;99.90
51839;DHT22;37886;53.174;6.368;2023-03-15T11:25:57;8.20;99.90
51839;DHT22;37886;53.174;6.368;2023-03-15T11:28:28;8.30;99.90
51839;DHT22;37886;53.174;6.368;2023-03-15T11:30:56;7.80;99.20
51839;DHT22;37886;53.174;6.368;2023-03-15T11:35:59;7.60;99.90
51839;DHT22;37886;53.174;6.368;2023-03-15T11:38:35;7.70;99.90
51839;DHT22;37886;53.174;6.368;2023-03-15T11:41:11;8.00;99.90
51839;DHT22;37886;53.174;6.368;2023-03-15T11:49:53;8.20;96.50
51839;DHT22;37886;53.174;6.368;2023-03-15T11:52:22;8.30;97.30
51839;DHT22;37886;53.174;6.368;2023-03-15T11:54:48;8.40;97.40
51839;DHT22;37886;53.174;6.368;2023-03-15T11:57:34;8.60;98.90
51839;DHT22;37886;53.174;6.368;2023-03-15T12:02:57;8.60;97.40
51839;DHT22;37886;53.174;6.368;2023-03-15T12:08:53;9.20;98.80
51839;DHT22;37886;53.174;6.368;2023-03-15T12:16:25;9.90;95.50
51839;DHT22;37886;53.174;6.368;2023-03-15T12:18:52;9.50;95.90
51839;DHT22;37886;53.174;6.368;2023-03-15T12:21:32;9.60;95.80
51839;DHT22;37886;53.174;6.368;2023-03-15T12:24:02;9.90;96.10
51839;DHT22;37886;53.174;6.368;2023-03-15T12:26:47;10.20;95.40
51839;DHT22;37886;53.174;6.368;2023-03-15T12:34:28;10.10;91.10
51839;DHT22;37886;53.174;6.368;2023-03-15T12:37:00;10.20;93.70
51839;DHT22;37886;53.174;6.368;2023-03-15T12:42:03;10.30;93.30
51839;DHT22;37886;53.174;6.368;2023-03-15T12:46:59;10.70;93.30
51839;DHT22;37886;53.174;6.368;2023-03-15T12:54:59;9.90;95.10
51839;DHT22;37886;53.174;6.368;2023-03-15T12:57:30;9.90;97.70
51839;DHT22;37886;53.174;6.368;2023-03-15T13:00:04;10.00;93.10
51839;DHT22;37886;53.174;6.368;2023-03-15T13:02:47;10.20;95.10
51839;DHT22;37886;53.174;6.368;2023-03-15T13:08:21;10.80;94.30
51839;DHT22;37886;53.174;6.368;2023-03-15T13:11:18;11.10;93.00
51839;DHT22;37886;53.174;6.368;2023-03-15T13:14:03;11.20;90.10
51839;DHT22;37886;53.174;6.368;2023-03-15T13:19:21;11.20;90.30
51839;DHT22;37886;53.174;6.368;2023-03-15T13:29:33;11.00;89.50
51839;DHT22;37886;53.174;6.368;2023-03-15T13:32:01;11.10;90.20
51839;DHT22;37886;53.174;6.368;2023-03-15T13:34:31;10.80;92.80
51839;DHT22;37886;53.174;6.368;2023-03-15T13:36:59;10.80;93.60
51839;DHT22;37886;53.174;6.368;2023-03-15T13:39:34;10.20;93.20
51839;DHT22;37886;53.174;6.368;2023-03-15T13:42:05;10.40;93.70
51839;DHT22;37886;53.174;6.368;2023-03-15T13:44:32;10.30;93.00
51839;DHT22;37886;53.174;6.368;2023-03-15T13:46:58;10.50;90.80
51839;DHT22;37886;53.174;6.368;2023-03-15T13:49:30;10.50;91.60
51839;DHT22;37886;53.174;6.368;2023-03-15T13:51:57;10.20;90.10
51839;DHT22;37886;53.174;6.368;2023-03-15T13:54:29;9.60;92.30
51839;DHT22;37886;53.174;6.368;2023-03-15T13:57:15;9.40;93.00
51839;DHT22;37886;53.174;6.368;2023-03-15T14:02:37;9.50;89.80
51839;DHT22;37886;53.174;6.368;2023-03-15T14:05:20;9.40;90.30
51839;DHT22;37886;53.174;6.368;2023-03-15T14:08:00;9.80;92.70
51839;DHT22;37886;53.174;6.368;2023-03-15T14:10:34;11.30;91.80
51839;DHT22;37886;53.174;6.368;2023-03-15T14:18:54;12.20;82.00
51839;DHT22;37886;53.174;6.368;2023-03-15T14:21:29;12.30;79.30
51839;DHT22;37886;53.174;6.368;2023-03-15T14:23:55;12.30;84.50
51839;DHT22;37886;53.174;6.368;2023-03-15T14:26:29;12.40;81.20
51839;DHT22;37886;53.174;6.368;2023-03-15T14:29:22;12.10;80.30
51839;DHT22;37886;53.174;6.368;2023-03-15T14:31:50;12.40;80.60
51839;DHT22;37886;53.174;6.368;2023-03-15T14:34:42;12.50;82.90
51839;DHT22;37886;53.174;6.368;2023-03-15T14:37:39;12.60;78.00
51839;DHT22;37886;53.174;6.368;2023-03-15T14:40:18;12.70;78.30
51839;DHT22;37886;53.174;6.368;2023-03-15T14:42:50;11.90;79.70
51839;DHT22;37886;53.174;6.368;2023-03-15T14:45:17;11.30;81.50
51839;DHT22;37886;53.174;6.368;2023-03-15T14:47:46;11.50;82.70
51839;DHT22;37886;53.174;6.368;2023-03-15T14:50:15;12.40;84.00
51839;DHT22;37886;53.174;6.368;2023-03-15T14:52:42;12.30;77.90
51839;DHT22;37886;53.174;6.368;2023-03-15T14:55:17;12.80;76.10
51839;DHT22;37886;53.174;6.368;2023-03-15T14:57:43;12.80;79.40
51839;DHT22;37886;53.174;6.368;2023-03-15T15:00:16;13.00;83.70
51839;DHT22;37886;53.174;6.368;2023-03-15T15:02:43;12.60;78.20
51839;DHT22;37886;53.174;6.368;2023-03-15T15:05:30;11.50;82.10
51839;DHT22;37886;53.174;6.368;2023-03-15T15:10:27;12.20;88.70
51839;DHT22;37886;53.174;6.368;2023-03-15T15:12:53;11.80;86.90
51839;DHT22;37886;53.174;6.368;2023-03-15T15:15:21;11.40;89.90
51839;DHT22;37886;53.174;6.368;2023-03-15T15:17:47;11.10;91.60
51839;DHT22;37886;53.174;6.368;2023-03-15T15:20:14;10.30;93.50
51839;DHT22;37886;53.174;6.368;2023-03-15T15:22:44;9.90;94.40
51839;DHT22;37886;53.174;6.368;2023-03-15T15:25:19;9.90;95.20
51839;DHT22;37886;53.174;6.368;2023-03-15T15:27:46;10.80;94.10
51839;DHT22;37886;53.174;6.368;2023-03-15T15:30:16;10.60;94.10
51839;DHT22;37886;53.174;6.368;2023-03-15T15:32:42;10.40;95.60
51839;DHT22;37886;53.174;6.368;2023-03-15T15:35:15;10.40;96.10
51839;DHT22;37886;53.174;6.368;2023-03-15T15:37:46;9.70;96.70
51839;DHT22;37886;53.174;6.368;2023-03-15T15:40:28;9.30;98.50
51839;DHT22;37886;53.174;6.368;2023-03-15T15:42:55;9.20;99.90
51839;DHT22;37886;53.174;6.368;2023-03-15T15:45:21;9.40;99.90
51839;DHT22;37886;53.174;6.368;2023-03-15T15:47:49;9.30;99.90
51839;DHT22;37886;53.174;6.368;2023-03-15T15:50:17;9.80;99.90
51839;DHT22;37886;53.174;6.368;2023-03-15T15:52:47;9.70;99.90
51839;DHT22;37886;53.174;6.368;2023-03-15T15:55:16;9.70;99.90
51839;DHT22;37886;53.174;6.368;2023-03-15T15:57:43;9.70;97.40
51839;DHT22;37886;53.174;6.368;2023-03-15T16:00:17;8.90;98.40
51839;DHT22;37886;53.174;6.368;2023-03-15T16:02:44;8.70;98.20
51839;DHT22;37886;53.174;6.368;2023-03-15T16:05:10;8.20;99.00
51839;DHT22;37886;53.174;6.368;2023-03-15T16:07:37;8.00;99.70
51839;DHT22;37886;53.174;6.368;2023-03-15T16:10:06;7.80;99.30
51839;DHT22;37886;53.174;6.368;2023-03-15T16:12:33;7.80;99.90
51839;DHT22;37886;53.174;6.368;2023-03-15T16:14:59;7.80;99.90
51839;DHT22;37886;53.174;6.368;2023-03-15T16:17:25;7.60;99.90
51839;DHT22;37886;53.174;6.368;2023-03-15T16:19:52;7.50;99.90
51839;DHT22;37886;53.174;6.368;2023-03-15T16:22:19;7.60;99.90
51839;DHT22;37886;53.174;6.368;2023-03-15T16:24:49;8.20;99.90
51839;DHT22;37886;53.174;6.368;2023-03-15T16:27:21;9.10;99.40
51839;DHT22;37886;53.174;6.368;2023-03-15T16:29:47;9.30;98.90
51839;DHT22;37886;53.174;6.368;2023-03-15T16:32:16;9.80;98.00
51839;DHT22;37886;53.174;6.368;2023-03-15T16:34:43;10.00;97.20
51839;DHT22;37886;53.174;6.368;2023-03-15T16:37:18;9.10;98.20
51839;DHT22;37886;53.174;6.368;2023-03-15T16:39:47;8.30;99.40
51839;DHT22;37886;53.174;6.368;2023-03-15T16:42:15;7.70;99.90
51839;DHT22;37886;53.174;6.368;2023-03-15T16:44:42;7.60;99.90
51839;DHT22;37886;53.174;6.368;2023-03-15T16:47:08;7.40;99.90
51839;DHT22;37886;53.174;6.368;2023-03-15T16:49:34;7.20;99.90
51839;DHT22;37886;53.174;6.368;2023-03-15T16:52:01;7.10;99.90
51839;DHT22;37886;53.174;6.368;2023-03-15T16:54:28;7.10;99.90
51839;DHT22;37886;53.174;6.368;2023-03-15T16:56:55;6.90;99.90
51839;DHT22;37886;53.174;6.368;2023-03-15T16:59:21;6.90;99.90
51839;DHT22;37886;53.174;6.368;2023-03-15T17:01:47;6.80;99.90
51839;DHT22;37886;53.174;6.368;2023-03-15T17:04:15;6.70;99.50
51839;DHT22;37886;53.174;6.368;2023-03-15T17:06:42;6.70;99.50
51839;DHT22;37886;53.174;6.368;2023-03-15T17:09:20;6.60;99.70
51839;DHT22;37886;53.174;6.368;2023-03-15T17:11:49;6.50;99.90
51839;DHT22;37886;53.174;6.368;2023-03-15T17:14:19;6.40;99.90
51839;DHT22;37886;53.174;6.368;2023-03-15T17:16:47;6.20;99.90
51839;DHT22;37886;53.174;6.368;2023-03-15T17:19:13;6.00;99.90
51839;DHT22;37886;53.174;6.368;2023-03-15T17:21:40;5.90;99.90
51839;DHT22;37886;53.174;6.368;2023-03-15T17:24:08;5.90;99.90
51839;DHT22;37886;53.174;6.368;2023-03-15T17:26:34;5.80;99.90